Time;durP1;ratioP1;P1;durP2;ratioP2;P2;SDS_P1;SDS_P2;PMS_P1;PMS_P2;Temp;Humidity;BMP_temperature;BMP_pressure;BME280_temperature;BME280_humidity;BME280_pressure;Samples;Min_cycle;Max_cycle;Signal;HPM_P1;HPM_P2
2023/12/26 00:00:26;;;;;;;7.97;1.17;;;9.30;99.90;;;;;;5141813;27;20042;-85
2023/12/26 00:02:52;;;;;;;4.93;1.25;;;9.30;99.90;;;;;;5158968;27;20537;-85
2023/12/26 00:05:18;;;;;;;7.78;1.30;;;9.30;99.90;;;;;;5173162;27;20486;-86
2023/12/26 00:07:43;;;;;;;7.57;1.27;;;9.30;99.90;;;;;;5138077;27;20030;-85
2023/12/26 00:10:11;;;;;;;2.17;0.80;;;9.30;99.90;;;;;;5164411;27;20482;-84
2023/12/26 00:12:37;;;;;;;3.95;1.10;;;9.30;99.90;;;;;;5136806;27;20398;-85
2023/12/26 00:15:03;;;;;;;4.70;1.25;;;9.40;99.90;;;;;;5156164;27;20054;-86
2023/12/26 00:17:29;;;;;;;2.45;1.20;;;9.30;99.90;;;;;;5156536;27;20039;-86
2023/12/26 00:19:55;;;;;;;2.33;1.02;;;9.30;99.90;;;;;;5137045;27;20039;-85
2023/12/26 00:22:20;;;;;;;5.30;1.10;;;9.30;99.90;;;;;;5156168;27;20047;-85
2023/12/26 00:24:48;;;;;;;2.03;0.90;;;9.40;99.90;;;;;;5138204;27;20498;-85
2023/12/26 00:27:14;;;;;;;6.13;1.48;;;9.40;99.90;;;;;;5156045;27;20091;-85
2023/12/26 00:29:40;;;;;;;2.13;0.90;;;9.40;99.90;;;;;;5137780;27;20129;-85
2023/12/26 00:32:06;;;;;;;4.97;1.02;;;9.40;99.90;;;;;;5137405;27;20049;-85
2023/12/26 00:34:32;;;;;;;8.27;1.20;;;9.40;99.90;;;;;;5137085;27;20038;-85
2023/12/26 00:36:57;;;;;;;2.92;0.80;;;9.30;99.90;;;;;;5156001;27;20051;-84
2023/12/26 00:39:23;;;;;;;4.18;1.20;;;9.40;99.90;;;;;;5138196;27;20486;-85
2023/12/26 00:41:49;;;;;;;5.22;0.98;;;9.40;99.90;;;;;;5137337;27;20077;-85
2023/12/26 00:44:14;;;;;;;1.80;0.70;;;9.40;99.90;;;;;;5137067;27;20393;-85
2023/12/26 00:46:41;;;;;;;6.28;1.00;;;9.40;99.90;;;;;;5137492;27;20388;-85
2023/12/26 00:49:06;;;;;;;7.70;0.93;;;9.40;99.90;;;;;;5137207;27;20046;-85
2023/12/26 00:51:32;;;;;;;1.77;0.60;;;9.40;99.90;;;;;;5136957;27;20043;-85
2023/12/26 00:53:58;;;;;;;6.72;1.10;;;9.40;99.90;;;;;;5136575;27;20026;-84
2023/12/26 00:56:24;;;;;;;6.28;0.70;;;9.40;99.90;;;;;;5137341;27;20043;-85
2023/12/26 00:58:49;;;;;;;1.60;0.70;;;9.40;99.90;;;;;;5120135;27;20034;-85
2023/12/26 01:01:15;;;;;;;4.00;0.80;;;9.40;99.90;;;;;;5155707;27;20525;-85
2023/12/26 01:03:41;;;;;;;8.75;0.82;;;9.40;99.90;;;;;;5155044;27;20042;-85
2023/12/26 01:06:07;;;;;;;3.58;0.50;;;9.40;99.90;;;;;;5136944;27;20107;-86
2023/12/26 01:08:33;;;;;;;5.68;0.65;;;9.40;99.90;;;;;;5136804;27;20040;-85
2023/12/26 01:10:58;;;;;;;6.65;0.82;;;9.40;99.90;;;;;;5155486;27;20395;-85
2023/12/26 01:13:25;;;;;;;5.60;0.80;;;9.40;99.90;;;;;;5135821;27;20038;-85
2023/12/26 01:15:51;;;;;;;5.72;0.60;;;9.40;99.90;;;;;;5135867;27;20045;-86
2023/12/26 01:18:17;;;;;;;5.20;0.65;;;9.40;99.90;;;;;;5154822;27;20058;-85
2023/12/26 01:20:42;;;;;;;7.55;0.80;;;9.40;99.90;;;;;;5136664;27;20043;-84
2023/12/26 01:23:08;;;;;;;5.47;0.70;;;9.40;99.90;;;;;;5138668;27;20047;-85
2023/12/26 01:25:34;;;;;;;9.63;0.60;;;9.40;99.90;;;;;;5139663;27;20501;-85
2023/12/26 01:28:00;;;;;;;3.85;0.52;;;9.40;99.90;;;;;;5136435;27;20050;-85
2023/12/26 01:30:25;;;;;;;6.85;1.23;;;9.40;99.90;;;;;;5136478;27;20070;-84
2023/12/26 01:32:51;;;;;;;10.25;1.30;;;9.40;99.90;;;;;;5155210;27;20034;-84
2023/12/26 01:35:17;;;;;;;11.50;1.10;;;9.40;99.90;;;;;;5136444;27;20119;-84
2023/12/26 01:37:42;;;;;;;8.88;1.00;;;9.40;99.90;;;;;;5136304;27;20479;-85
2023/12/26 01:40:10;;;;;;;11.88;1.25;;;9.40;99.90;;;;;;5119531;27;20038;-84
2023/12/26 01:42:37;;;;;;;7.10;0.70;;;9.40;99.90;;;;;;5136346;27;20457;-84
2023/12/26 01:45:04;;;;;;;7.63;0.90;;;9.40;99.90;;;;;;5136115;27;20553;-84
2023/12/26 01:47:29;;;;;;;11.93;1.40;;;9.30;99.90;;;;;;5118266;27;20038;-84
2023/12/26 01:49:55;;;;;;;11.20;1.17;;;9.40;99.90;;;;;;5136232;27;20139;-85
2023/12/26 01:52:21;;;;;;;15.35;0.93;;;9.40;99.90;;;;;;5154631;27;20045;-84
2023/12/26 01:54:47;;;;;;;11.85;1.40;;;9.30;99.90;;;;;;5136323;27;20077;-84
2023/12/26 01:57:13;;;;;;;9.95;0.95;;;9.30;99.90;;;;;;5134979;27;20479;-85
2023/12/26 01:59:40;;;;;;;18.55;1.42;;;9.30;99.90;;;;;;5175552;27;20048;-85
2023/12/26 02:02:07;;;;;;;7.35;0.93;;;9.20;99.90;;;;;;5156566;27;20490;-86
2023/12/26 02:04:33;;;;;;;15.55;1.63;;;9.20;99.90;;;;;;5116741;27;20035;-85
2023/12/26 02:06:59;;;;;;;8.15;1.40;;;9.20;99.90;;;;;;5118337;27;20067;-85
2023/12/26 02:09:25;;;;;;;12.13;1.15;;;9.20;99.90;;;;;;5135470;27;20077;-85
2023/12/26 02:11:54;;;;;;;15.73;1.15;;;9.20;99.90;;;;;;5153980;27;20038;-85
2023/12/26 02:14:21;;;;;;;10.68;1.83;;;9.20;99.90;;;;;;5135864;27;20042;-85
2023/12/26 02:16:48;;;;;;;14.45;1.92;;;9.20;99.90;;;;;;5118631;27;20054;-85
2023/12/26 02:19:15;;;;;;;17.15;1.83;;;9.20;99.90;;;;;;5161058;27;20034;-84
2023/12/26 02:21:41;;;;;;;18.83;1.48;;;9.20;99.90;;;;;;5156230;27;20039;-85
2023/12/26 02:24:07;;;;;;;15.18;1.45;;;9.20;99.90;;;;;;5155869;27;20050;-84
2023/12/26 02:26:40;;;;;;;21.23;1.58;;;9.20;99.90;;;;;;5174788;27;20054;-85
2023/12/26 02:29:06;;;;;;;18.08;1.55;;;9.20;99.90;;;;;;5154523;27;20186;-85
2023/12/26 02:31:34;;;;;;;13.70;1.73;;;9.20;99.90;;;;;;5137744;27;20399;-85
2023/12/26 02:34:00;;;;;;;14.15;1.85;;;9.20;99.90;;;;;;5155048;27;20082;-85
2023/12/26 02:36:27;;;;;;;19.67;1.88;;;9.20;99.90;;;;;;5135530;27;20049;-85
2023/12/26 02:38:53;;;;;;;12.98;1.63;;;9.20;99.90;;;;;;5127621;27;20034;-84
2023/12/26 02:41:18;;;;;;;11.75;2.03;;;9.20;99.90;;;;;;5135586;27;20486;-85
2023/12/26 02:43:44;;;;;;;17.75;3.17;;;9.20;99.90;;;;;;5135702;27;20087;-84
2023/12/26 02:46:10;;;;;;;17.20;2.00;;;9.20;99.90;;;;;;5138397;27;20042;-84
2023/12/26 02:48:36;;;;;;;11.30;1.40;;;9.20;99.90;;;;;;5133417;27;20127;-84
2023/12/26 02:51:03;;;;;;;22.15;2.33;;;9.10;99.90;;;;;;5136678;27;20046;-85
2023/12/26 02:53:28;;;;;;;10.70;1.67;;;9.10;99.90;;;;;;5138839;27;20094;-84
2023/12/26 02:55:54;;;;;;;18.48;2.15;;;9.10;99.90;;;;;;5156187;27;20054;-85
2023/12/26 02:58:20;;;;;;;15.05;1.63;;;9.00;99.90;;;;;;5174865;27;20173;-85
2023/12/26 03:00:47;;;;;;;13.23;2.28;;;9.00;99.90;;;;;;5137711;27;20038;-85
2023/12/26 03:03:13;;;;;;;11.63;1.58;;;9.00;99.90;;;;;;5134122;27;20038;-85
2023/12/26 03:05:39;;;;;;;12.05;1.55;;;8.90;99.90;;;;;;5138322;27;20083;-85
2023/12/26 03:08:05;;;;;;;8.20;1.88;;;8.90;99.90;;;;;;5155942;27;20406;-85
2023/12/26 03:10:31;;;;;;;15.57;2.17;;;8.80;99.90;;;;;;5146870;27;20074;-85
2023/12/26 03:12:56;;;;;;;15.40;2.00;;;8.80;99.90;;;;;;5134906;27;20143;-85
2023/12/26 03:15:22;;;;;;;14.48;1.80;;;8.80;99.90;;;;;;5153855;27;20085;-85
2023/12/26 03:17:48;;;;;;;14.52;1.67;;;8.70;99.90;;;;;;5135250;27;20544;-85
2023/12/26 03:20:14;;;;;;;20.88;3.20;;;8.70;99.90;;;;;;5164773;27;20109;-85
2023/12/26 03:22:40;;;;;;;10.13;1.63;;;8.70;99.90;;;;;;5152891;27;20038;-85
2023/12/26 03:25:07;;;;;;;8.85;1.17;;;8.70;99.90;;;;;;5135386;27;20046;-85
2023/12/26 03:27:33;;;;;;;16.45;1.92;;;8.60;99.90;;;;;;5153186;27;20495;-85
2023/12/26 03:29:58;;;;;;;19.45;1.92;;;8.50;99.90;;;;;;5135005;27;20039;-85
2023/12/26 03:32:24;;;;;;;17.90;1.98;;;8.60;99.90;;;;;;5133683;27;20053;-85
2023/12/26 03:34:50;;;;;;;13.60;2.22;;;8.50;99.90;;;;;;5134698;27;20034;-86
2023/12/26 03:37:15;;;;;;;12.90;1.73;;;8.50;99.90;;;;;;5176491;27;20042;-87
2023/12/26 03:39:41;;;;;;;15.02;1.30;;;8.50;99.90;;;;;;5138744;27;20058;-85
2023/12/26 03:42:07;;;;;;;17.13;1.63;;;8.40;99.90;;;;;;5138458;27;20103;-86
2023/12/26 03:44:33;;;;;;;13.80;1.52;;;8.30;99.90;;;;;;5121429;27;20478;-86
2023/12/26 03:46:59;;;;;;;13.38;2.20;;;7.80;99.90;;;;;;5121489;27;20053;-86
2023/12/26 03:49:27;;;;;;;11.13;1.30;;;8.30;99.90;;;;;;5124130;27;20042;-85
2023/12/26 03:51:53;;;;;;;12.27;1.55;;;8.20;99.90;;;;;;5170224;27;20478;-86
2023/12/26 03:54:21;;;;;;;16.77;1.95;;;8.20;99.90;;;;;;5175380;27;20034;-85
2023/12/26 03:56:47;;;;;;;12.52;1.60;;;8.20;99.90;;;;;;5134534;27;20043;-85
2023/12/26 03:59:13;;;;;;;10.32;1.73;;;8.20;99.90;;;;;;5169158;27;20508;-87
2023/12/26 04:01:39;;;;;;;15.65;2.13;;;8.10;99.90;;;;;;5159086;27;20399;-87
2023/12/26 04:04:04;;;;;;;14.15;2.13;;;8.10;99.90;;;;;;5154263;27;20034;-86
2023/12/26 04:06:30;;;;;;;16.85;2.08;;;8.10;99.90;;;;;;5141386;27;20049;-86
2023/12/26 04:08:56;;;;;;;27.85;2.00;;;8.00;99.90;;;;;;5169271;27;20047;-84
2023/12/26 04:11:22;;;;;;;14.35;1.95;;;8.00;99.90;;;;;;5139829;27;20043;-85
2023/12/26 04:13:48;;;;;;;16.10;2.63;;;8.00;99.90;;;;;;5158855;27;20495;-85
2023/12/26 04:16:14;;;;;;;14.88;1.92;;;7.90;99.90;;;;;;5156713;27;20134;-85
2023/12/26 04:18:40;;;;;;;20.67;2.60;;;7.90;99.90;;;;;;5137802;27;20081;-85
2023/12/26 04:21:08;;;;;;;19.75;2.05;;;7.90;99.90;;;;;;5156053;27;20042;-85
2023/12/26 04:23:33;;;;;;;16.55;2.15;;;7.80;99.90;;;;;;5156674;27;20449;-85
2023/12/26 04:25:59;;;;;;;22.63;2.38;;;7.80;99.90;;;;;;5138056;27;20055;-85
2023/12/26 04:28:25;;;;;;;16.88;2.03;;;7.70;99.90;;;;;;5120114;27;20085;-85
2023/12/26 04:30:51;;;;;;;13.65;2.42;;;7.70;99.90;;;;;;5155992;27;20414;-86
2023/12/26 04:33:16;;;;;;;19.75;2.55;;;7.70;99.90;;;;;;5122996;27;20046;-86
2023/12/26 04:35:42;;;;;;;22.98;2.67;;;7.70;99.90;;;;;;5157974;27;20054;-86
2023/12/26 04:38:09;;;;;;;20.00;3.40;;;7.70;99.90;;;;;;5176809;27;20455;-86
2023/12/26 04:40:34;;;;;;;19.52;2.42;;;7.70;99.90;;;;;;5153498;27;20395;-86
2023/12/26 04:43:05;;;;;;;20.67;2.15;;;7.70;99.90;;;;;;5155746;27;20047;-86
2023/12/26 04:45:31;;;;;;;21.17;2.90;;;7.70;99.90;;;;;;5137447;27;20041;-86
2023/12/26 04:47:56;;;;;;;19.17;2.65;;;7.70;99.90;;;;;;5164698;27;20047;-86
2023/12/26 04:50:22;;;;;;;16.30;2.30;;;7.60;99.90;;;;;;5169052;27;20410;-86
2023/12/26 04:52:48;;;;;;;15.73;2.03;;;7.70;99.90;;;;;;5137247;27;20041;-86
2023/12/26 04:55:14;;;;;;;20.60;2.92;;;7.70;99.90;;;;;;5137238;27;20156;-85
2023/12/26 04:57:39;;;;;;;24.42;3.22;;;7.70;99.90;;;;;;5119717;27;20043;-86
2023/12/26 05:00:06;;;;;;;16.60;2.10;;;7.60;99.90;;;;;;5136518;27;20035;-86
2023/12/26 05:02:31;;;;;;;20.15;2.08;;;7.70;99.90;;;;;;5155462;27;20142;-86
2023/12/26 05:04:57;;;;;;;15.15;2.60;;;7.70;99.90;;;;;;5139617;27;20069;-86
2023/12/26 05:07:23;;;;;;;20.02;2.33;;;7.70;99.90;;;;;;5176558;27;20096;-86
2023/12/26 05:09:48;;;;;;;13.55;1.95;;;7.70;99.90;;;;;;5126868;27;20031;-86
2023/12/26 05:12:14;;;;;;;17.02;1.92;;;7.70;99.90;;;;;;5155118;27;20054;-86
2023/12/26 05:14:40;;;;;;;14.35;2.55;;;7.90;99.90;;;;;;5137148;27;20119;-87
2023/12/26 05:17:06;;;;;;;16.52;2.72;;;7.80;99.90;;;;;;5119785;27;20050;-86
2023/12/26 05:19:31;;;;;;;21.50;2.58;;;7.80;99.90;;;;;;5119534;27;20129;-86
2023/12/26 05:21:57;;;;;;;17.25;2.28;;;7.80;99.90;;;;;;5135119;27;20478;-86
2023/12/26 05:24:23;;;;;;;17.08;1.98;;;7.80;99.90;;;;;;5139629;27;20090;-86
2023/12/26 05:26:48;;;;;;;17.58;2.10;;;7.80;99.90;;;;;;5155346;27;20086;-86
2023/12/26 05:29:14;;;;;;;18.15;2.20;;;7.80;99.90;;;;;;5159922;27;20039;-86
2023/12/26 05:31:40;;;;;;;17.38;2.42;;;7.80;99.90;;;;;;5136127;27;20398;-86
2023/12/26 05:34:10;;;;;;;16.05;2.03;;;7.80;99.90;;;;;;5136782;27;20068;-86
2023/12/26 05:36:36;;;;;;;20.52;2.40;;;7.80;99.90;;;;;;5119239;27;20053;-86
2023/12/26 05:39:02;;;;;;;23.35;2.20;;;7.80;99.90;;;;;;5136338;27;20046;-87
2023/12/26 05:41:28;;;;;;;17.90;2.08;;;7.80;99.90;;;;;;5135668;27;20049;-86
2023/12/26 05:43:54;;;;;;;25.30;2.42;;;7.80;99.90;;;;;;5135079;27;20126;-86
2023/12/26 05:46:20;;;;;;;13.32;1.95;;;7.80;99.90;;;;;;5136199;27;20351;-86
2023/12/26 05:48:46;;;;;;;21.13;1.83;;;7.90;99.90;;;;;;5155070;27;20096;-86
2023/12/26 05:51:12;;;;;;;19.20;2.28;;;7.90;99.90;;;;;;5119470;27;20429;-86
2023/12/26 05:53:38;;;;;;;20.40;2.08;;;7.90;99.90;;;;;;5135974;27;20088;-86
2023/12/26 05:56:04;;;;;;;14.90;2.33;;;7.90;99.90;;;;;;5135944;27;20432;-86
2023/12/26 05:58:30;;;;;;;13.73;2.10;;;7.80;99.90;;;;;;5162710;27;20046;-87
2023/12/26 06:00:56;;;;;;;15.52;2.00;;;7.90;99.90;;;;;;5135888;27;20141;-87
2023/12/26 06:03:21;;;;;;;15.93;2.03;;;7.90;99.90;;;;;;5135912;27;20042;-86
2023/12/26 06:05:47;;;;;;;16.65;2.08;;;7.90;99.90;;;;;;5155352;27;20403;-86
2023/12/26 06:08:17;;;;;;;20.10;2.05;;;7.90;99.90;;;;;;5119560;27;20038;-86
2023/12/26 06:10:42;;;;;;;17.48;1.73;;;7.90;99.90;;;;;;5135807;27;20058;-85
2023/12/26 06:13:08;;;;;;;15.50;2.13;;;7.90;99.90;;;;;;5135543;27;20376;-86
2023/12/26 06:15:34;;;;;;;18.95;2.20;;;7.90;99.90;;;;;;5135132;27;20467;-86
2023/12/26 06:18:00;;;;;;;16.25;2.05;;;7.90;99.90;;;;;;5154303;27;20041;-86
2023/12/26 06:20:27;;;;;;;14.90;2.10;;;7.90;99.90;;;;;;5138648;27;20139;-86
2023/12/26 06:22:55;;;;;;;21.27;1.98;;;8.00;99.90;;;;;;5139165;27;20049;-87
2023/12/26 06:25:21;;;;;;;16.98;2.20;;;7.90;99.90;;;;;;5132683;27;20081;-87
2023/12/26 06:27:47;;;;;;;12.88;1.70;;;7.90;99.90;;;;;;5153894;27;20142;-87
2023/12/26 06:30:13;;;;;;;11.85;2.28;;;7.90;99.90;;;;;;5135933;27;20080;-86
2023/12/26 06:32:39;;;;;;;13.13;1.65;;;7.90;99.90;;;;;;5154489;27;20117;-86
2023/12/26 06:35:05;;;;;;;10.68;1.58;;;7.90;99.90;;;;;;5135432;27;20592;-85
2023/12/26 06:37:31;;;;;;;12.55;1.98;;;7.80;99.90;;;;;;5138256;27;20175;-86
2023/12/26 06:39:56;;;;;;;12.90;1.40;;;7.80;99.90;;;;;;5160543;27;20043;-86
2023/12/26 06:42:22;;;;;;;18.02;1.83;;;7.80;99.90;;;;;;5135646;27;20394;-86
2023/12/26 06:44:48;;;;;;;17.63;2.03;;;7.80;99.90;;;;;;5154359;27;20622;-86
2023/12/26 06:47:14;;;;;;;16.40;2.58;;;7.70;99.90;;;;;;5134790;27;20073;-86
2023/12/26 06:49:46;;;;;;;18.98;2.00;;;7.70;99.90;;;;;;5118200;27;20372;-87
2023/12/26 06:52:14;;;;;;;20.50;2.53;;;7.80;99.90;;;;;;5117492;27;20046;-85
2023/12/26 06:54:41;;;;;;;13.32;2.92;;;7.60;99.90;;;;;;5135283;27;20045;-86
2023/12/26 06:57:15;;;;;;;13.82;2.28;;;7.60;99.90;;;;;;5137969;27;20102;-86
2023/12/26 06:59:48;;;;;;;21.05;1.63;;;7.60;99.90;;;;;;5138159;27;20066;-86
2023/12/26 07:02:15;;;;;;;16.52;2.42;;;7.60;99.90;;;;;;5173941;27;20050;-85
2023/12/26 07:04:44;;;;;;;17.88;2.22;;;7.60;99.90;;;;;;5123179;27;20043;-86
2023/12/26 07:07:10;;;;;;;21.35;3.05;;;7.60;99.90;;;;;;5148702;27;20030;-85
2023/12/26 07:09:37;;;;;;;21.58;3.00;;;7.70;99.90;;;;;;5135361;27;20042;-86
2023/12/26 07:12:02;;;;;;;13.43;1.85;;;7.60;99.90;;;;;;5155486;27;20042;-86
2023/12/26 07:14:30;;;;;;;19.35;2.47;;;7.60;99.90;;;;;;5139558;27;20061;-86
2023/12/26 07:16:58;;;;;;;14.00;2.05;;;7.60;99.90;;;;;;5162929;27;20038;-86
2023/12/26 07:19:23;;;;;;;16.27;2.35;;;7.60;99.90;;;;;;5143697;27;20039;-84
2023/12/26 07:21:49;;;;;;;19.40;3.17;;;7.60;99.90;;;;;;5142348;27;20094;-86
2023/12/26 07:24:15;;;;;;;21.27;2.55;;;7.60;99.90;;;;;;5142629;27;20046;-86
2023/12/26 07:26:40;;;;;;;14.48;2.17;;;7.60;99.90;;;;;;5159621;27;20082;-86
2023/12/26 07:29:06;;;;;;;17.45;2.55;;;7.60;99.90;;;;;;5150025;27;20306;-85
2023/12/26 07:31:32;;;;;;;21.00;2.28;;;7.60;99.90;;;;;;5139133;27;20447;-86
2023/12/26 07:34:00;;;;;;;22.85;4.55;;;7.60;99.90;;;;;;5138945;27;20576;-87
2023/12/26 07:36:26;;;;;;;18.50;2.50;;;7.60;99.90;;;;;;5142200;27;20121;-87
2023/12/26 07:38:52;;;;;;;15.48;2.60;;;7.60;99.90;;;;;;5148712;27;20105;-86
2023/12/26 07:41:17;;;;;;;13.32;2.83;;;7.60;99.90;;;;;;5120693;27;20493;-87
2023/12/26 07:43:44;;;;;;;21.90;3.38;;;7.70;99.90;;;;;;5141299;27;20039;-86
2023/12/26 07:46:10;;;;;;;16.70;1.55;;;7.70;99.90;;;;;;5159351;27;20470;-86
2023/12/26 07:48:35;;;;;;;18.90;3.58;;;7.60;99.90;;;;;;5156583;27;20052;-85
2023/12/26 07:51:01;;;;;;;17.38;2.22;;;7.60;99.90;;;;;;5156741;27;20039;-86
2023/12/26 07:53:27;;;;;;;21.13;2.88;;;7.60;99.90;;;;;;5138123;27;20081;-85
2023/12/26 07:55:53;;;;;;;19.17;2.40;;;7.70;99.90;;;;;;5138428;27;20495;-86
2023/12/26 07:58:19;;;;;;;21.40;2.17;;;7.70;99.90;;;;;;5140453;27;20045;-85
2023/12/26 08:00:44;;;;;;;14.98;2.33;;;7.60;99.90;;;;;;5144481;27;20471;-86
2023/12/26 08:03:15;;;;;;;23.67;2.65;;;7.70;99.90;;;;;;5137862;27;20046;-86
2023/12/26 08:05:42;;;;;;;13.95;2.35;;;7.60;99.90;;;;;;5138296;27;20049;-86
2023/12/26 08:08:08;;;;;;;29.55;3.58;;;7.60;99.90;;;;;;5138039;27;20050;-86
2023/12/26 08:10:35;;;;;;;20.45;2.70;;;7.60;99.90;;;;;;5137682;27;20035;-86
2023/12/26 08:13:00;;;;;;;14.13;1.98;;;7.70;99.90;;;;;;5137159;27;20118;-85
2023/12/26 08:15:26;;;;;;;18.23;1.92;;;7.60;99.90;;;;;;5177648;27;20050;-86
2023/12/26 08:17:52;;;;;;;14.25;2.30;;;7.60;99.90;;;;;;5141413;27;20046;-86
2023/12/26 08:20:18;;;;;;;17.55;2.28;;;7.60;99.90;;;;;;5177730;27;20079;-87
2023/12/26 08:22:44;;;;;;;22.60;2.38;;;7.60;99.90;;;;;;5132210;27;20452;-85
2023/12/26 08:25:09;;;;;;;17.90;2.80;;;7.60;99.90;;;;;;5156157;27;20059;-86
2023/12/26 08:27:36;;;;;;;21.17;3.17;;;7.60;99.90;;;;;;5137831;27;20134;-86
2023/12/26 08:30:02;;;;;;;27.67;2.55;;;7.60;99.90;;;;;;5137689;27;20508;-86
2023/12/26 08:32:28;;;;;;;23.50;2.92;;;7.60;99.90;;;;;;5137382;27;20047;-87
2023/12/26 08:34:54;;;;;;;18.85;2.78;;;7.70;99.90;;;;;;5156002;27;20038;-85
2023/12/26 08:37:20;;;;;;;12.10;2.50;;;7.70;99.90;;;;;;5140673;27;20088;-85
2023/12/26 08:39:46;;;;;;;18.95;2.60;;;7.70;99.90;;;;;;5177142;27;20054;-85
2023/12/26 08:42:11;;;;;;;21.20;2.55;;;7.70;99.90;;;;;;5156918;27;20084;-86
2023/12/26 08:44:37;;;;;;;11.95;2.17;;;7.80;99.90;;;;;;5138055;27;20039;-85
2023/12/26 08:47:03;;;;;;;24.50;2.75;;;7.70;99.90;;;;;;5156164;27;20107;-86
2023/12/26 08:49:29;;;;;;;18.45;2.17;;;7.70;99.90;;;;;;5174983;27;20049;-86
2023/12/26 08:51:55;;;;;;;13.57;1.70;;;7.80;99.90;;;;;;5177014;27;20039;-86
2023/12/26 08:54:20;;;;;;;18.40;3.10;;;7.80;99.90;;;;;;5165621;27;20066;-86
2023/12/26 08:56:47;;;;;;;14.85;2.40;;;7.90;99.90;;;;;;5141088;27;20199;-86
2023/12/26 08:59:13;;;;;;;14.63;1.90;;;7.90;99.90;;;;;;5141031;27;20042;-85
2023/12/26 09:01:38;;;;;;;25.10;2.47;;;7.90;99.90;;;;;;5157971;27;20046;-87
2023/12/26 09:04:04;;;;;;;14.93;2.50;;;7.90;99.90;;;;;;5121492;27;20038;-85
2023/12/26 09:06:30;;;;;;;16.58;2.08;;;7.90;99.90;;;;;;5119704;27;20091;-86
2023/12/26 09:08:56;;;;;;;19.25;2.15;;;7.90;99.90;;;;;;5155685;27;20074;-85
2023/12/26 09:11:22;;;;;;;16.05;2.13;;;8.00;99.90;;;;;;5137128;27;20050;-86
2023/12/26 09:13:47;;;;;;;15.55;2.97;;;8.00;99.90;;;;;;5137017;27;20046;-86
2023/12/26 09:16:14;;;;;;;13.88;2.15;;;8.00;99.90;;;;;;5136369;27;20042;-87
2023/12/26 09:18:41;;;;;;;19.85;2.30;;;8.00;99.90;;;;;;5140467;27;20474;-86
2023/12/26 09:21:07;;;;;;;16.52;2.60;;;7.30;99.90;;;;;;5156225;27;20046;-85
2023/12/26 09:23:32;;;;;;;14.75;2.03;;;8.10;99.90;;;;;;5122654;27;20448;-86
2023/12/26 09:26:02;;;;;;;14.52;2.45;;;7.60;99.90;;;;;;5137906;27;20077;-85
2023/12/26 09:28:28;;;;;;;21.00;1.88;;;8.10;99.90;;;;;;5140098;27;20043;-87
2023/12/26 09:30:54;;;;;;;15.75;2.47;;;8.10;99.90;;;;;;5122252;27;20050;-87
2023/12/26 09:33:19;;;;;;;15.68;2.58;;;8.20;99.90;;;;;;5137487;27;20030;-86
2023/12/26 09:35:45;;;;;;;19.95;2.85;;;8.20;99.90;;;;;;5138601;27;20034;-86
2023/12/26 09:38:11;;;;;;;19.17;2.13;;;8.20;99.90;;;;;;5156186;27;20042;-85
2023/12/26 09:40:37;;;;;;;19.00;2.65;;;8.20;99.90;;;;;;5135613;27;20490;-85
2023/12/26 09:43:03;;;;;;;14.38;2.20;;;8.20;99.90;;;;;;5136147;27;20081;-86
2023/12/26 09:45:31;;;;;;;15.38;2.17;;;8.30;99.90;;;;;;5119973;27;20039;-85
2023/12/26 09:47:57;;;;;;;18.85;2.05;;;8.30;99.90;;;;;;5150407;27;20042;-86
2023/12/26 09:50:23;;;;;;;26.33;2.60;;;8.30;99.90;;;;;;5166528;27;20053;-86
2023/12/26 09:52:59;;;;;;;18.98;2.63;;;8.30;99.90;;;;;;5153684;27;20483;-85
2023/12/26 09:55:28;;;;;;;;;;;8.30;99.90;;;;;;5142070;27;20042;-85
2023/12/26 09:57:57;;;;;;;11.52;1.90;;;8.30;99.90;;;;;;5135953;27;19929;-85
2023/12/26 10:00:26;;;;;;;15.93;2.60;;;8.30;99.90;;;;;;5118890;27;20046;-86
2023/12/26 10:02:53;;;;;;;16.77;2.28;;;8.30;99.90;;;;;;5154287;27;20038;-85
2023/12/26 10:05:19;;;;;;;12.80;2.58;;;8.30;99.90;;;;;;5119126;27;20394;-86
2023/12/26 10:07:45;;;;;;;16.88;2.42;;;8.30;99.90;;;;;;5135877;27;20042;-86
2023/12/26 10:10:12;;;;;;;14.65;2.25;;;8.30;99.90;;;;;;5118025;27;20039;-85
2023/12/26 10:12:39;;;;;;;16.80;2.28;;;8.60;99.90;;;;;;5154014;27;20091;-84
2023/12/26 10:15:05;;;;;;;13.45;2.90;;;8.40;99.90;;;;;;5135511;27;20042;-85
2023/12/26 10:17:32;;;;;;;17.30;2.15;;;8.40;99.90;;;;;;5135886;27;20035;-86
2023/12/26 10:20:03;;;;;;;13.60;2.30;;;8.50;99.90;;;;;;5135583;27;20069;-85
2023/12/26 10:22:32;;;;;;;23.90;2.55;;;8.50;99.90;;;;;;5118402;27;20474;-86
2023/12/26 10:25:00;;;;;;;13.82;2.47;;;8.50;99.90;;;;;;5117519;27;20074;-86
2023/12/26 10:27:26;;;;;;;15.32;2.47;;;8.50;99.90;;;;;;5134021;27;20047;-86
2023/12/26 10:29:54;;;;;;;21.85;2.55;;;8.50;99.90;;;;;;5117472;27;20066;-86
2023/12/26 10:32:25;;;;;;;20.60;2.20;;;8.50;99.90;;;;;;5134590;27;20121;-85
2023/12/26 10:34:52;;;;;;;13.90;2.28;;;8.50;99.90;;;;;;5165199;27;20031;-85
2023/12/26 10:37:22;;;;;;;22.73;3.42;;;8.50;99.90;;;;;;5118689;27;20491;-85
2023/12/26 10:39:48;;;;;;;20.13;2.72;;;8.50;99.90;;;;;;5134333;27;20121;-86
2023/12/26 10:42:17;;;;;;;18.02;2.30;;;8.60;99.90;;;;;;5135275;27;20074;-85
2023/12/26 10:44:56;;;;;;;19.38;2.83;;;8.60;99.90;;;;;;5137698;27;20049;-87
2023/12/26 10:47:23;;;;;;;20.70;2.22;;;8.70;99.90;;;;;;5128050;27;20046;-87
2023/12/26 10:49:55;;;;;;;18.77;3.03;;;8.70;99.90;;;;;;5140287;27;20376;-89
2023/12/26 10:52:22;;;;;;;16.25;2.75;;;8.70;99.90;;;;;;5139851;27;20107;-84
2023/12/26 10:54:49;;;;;;;17.55;2.70;;;8.80;99.90;;;;;;5139625;27;20047;-86
2023/12/26 10:57:17;;;;;;;17.23;2.95;;;8.70;99.90;;;;;;5139753;27;20103;-84
2023/12/26 13:51:59;;;;;;;3.92;0.50;;;7.80;99.90;;;;;;5170573;27;20047;-85
2023/12/26 13:55:03;;;;;;;11.25;0.63;;;7.80;99.90;;;;;;5135992;27;20057;-86
2023/12/26 13:58:07;;;;;;;5.45;0.52;;;8.30;99.90;;;;;;5155769;27;20069;-86
2023/12/26 14:01:10;;;;;;;7.85;0.63;;;7.60;99.90;;;;;;5115704;27;20063;-87
2023/12/26 14:04:13;;;;;;;11.20;0.85;;;7.60;99.90;;;;;;5098519;27;20100;-86
2023/12/26 14:07:19;;;;;;;8.68;0.90;;;7.60;99.90;;;;;;5098553;27;20043;-84
2023/12/26 14:10:23;;;;;;;5.38;0.73;;;7.50;99.90;;;;;;5115551;27;20055;-86
2023/12/26 14:13:25;;;;;;;9.18;0.57;;;7.60;99.90;;;;;;5147397;27;20039;-86
2023/12/26 14:16:29;;;;;;;11.35;1.00;;;7.50;99.90;;;;;;5135850;27;20039;-87
2023/12/26 14:19:32;;;;;;;4.50;0.88;;;7.50;99.90;;;;;;5121364;27;20102;-86
2023/12/26 14:22:35;;;;;;;5.05;0.90;;;7.60;99.90;;;;;;5129241;27;20093;-86
2023/12/26 14:25:39;;;;;;;6.47;0.77;;;7.30;99.90;;;;;;5118548;27;20054;-86
2023/12/26 14:28:42;;;;;;;5.35;0.60;;;7.50;99.90;;;;;;5121172;27;20566;-86
2023/12/26 14:31:45;;;;;;;6.80;0.70;;;6.90;99.90;;;;;;5121079;27;20391;-86
2023/12/26 14:34:49;;;;;;;6.57;1.08;;;7.40;99.90;;;;;;5140646;27;20074;-86
2023/12/26 14:37:52;;;;;;;6.53;0.95;;;7.30;99.90;;;;;;5135364;27;20047;-86
2023/12/26 14:40:56;;;;;;;3.80;0.50;;;7.30;99.90;;;;;;5113275;27;20050;-88
2023/12/26 14:44:00;;;;;;;2.85;0.60;;;7.20;99.90;;;;;;5134426;27;20081;-87
2023/12/26 14:47:03;;;;;;;5.85;0.57;;;7.20;99.90;;;;;;5131716;27;20042;-85
2023/12/26 14:50:06;;;;;;;3.95;0.60;;;7.10;99.90;;;;;;5110369;27;20043;-87
2023/12/26 14:53:09;;;;;;;8.45;0.80;;;7.10;99.90;;;;;;5128714;27;20380;-86
2023/12/26 14:56:12;;;;;;;4.68;0.68;;;7.00;99.90;;;;;;5110236;27;20044;-86
2023/12/26 14:59:15;;;;;;;10.48;0.80;;;6.90;99.90;;;;;;5147717;27;20045;-87
2023/12/26 15:01:58;;;;;;;8.02;1.58;;;7.00;99.90;;;;;;5128663;28;20035;-86
2023/12/26 15:04:25;;;;;;;7.55;1.48;;;7.00;99.90;;;;;;5113558;27;20043;-88
2023/12/26 15:06:50;;;;;;;10.77;1.00;;;7.00;99.90;;;;;;5143524;27;20184;-88
2023/12/26 15:09:16;;;;;;;6.47;0.90;;;6.90;99.90;;;;;;5129901;27;20142;-86
2023/12/26 15:11:42;;;;;;;6.32;0.82;;;6.90;99.90;;;;;;5110942;27;20666;-86
2023/12/26 15:14:12;;;;;;;10.13;1.00;;;7.10;99.90;;;;;;5118796;27;20372;-85
2023/12/26 15:16:38;;;;;;;8.35;0.95;;;6.80;99.90;;;;;;5131954;27;20043;-86
2023/12/26 15:19:03;;;;;;;8.60;1.65;;;6.80;99.90;;;;;;5132062;27;20042;-85
2023/12/26 15:21:29;;;;;;;5.95;1.02;;;5.90;99.90;;;;;;5149063;27;20095;-87
2023/12/26 15:23:55;;;;;;;7.53;1.45;;;7.30;99.90;;;;;;5130084;27;20440;-86
2023/12/26 15:26:21;;;;;;;8.02;2.35;;;6.70;99.90;;;;;;5152894;27;20470;-86
2023/12/26 15:28:48;;;;;;;10.50;1.63;;;6.70;99.90;;;;;;5131897;27;20133;-84
2023/12/26 15:31:15;;;;;;;7.88;1.02;;;6.70;99.90;;;;;;5154083;27;20070;-86
2023/12/26 15:33:46;;;;;;;9.57;1.55;;;6.80;99.90;;;;;;5137039;27;20038;-87
2023/12/26 15:36:20;;;;;;;9.48;1.13;;;6.60;99.90;;;;;;5133918;27;20514;-86
2023/12/26 15:38:46;;;;;;;8.20;1.33;;;6.60;99.90;;;;;;5135090;27;20047;-86
2023/12/26 15:41:12;;;;;;;6.47;1.00;;;6.50;99.90;;;;;;5127565;27;20043;-87
2023/12/26 15:43:39;;;;;;;10.27;2.25;;;6.50;99.90;;;;;;5135350;27;20414;-88
2023/12/26 15:46:17;;;;;;;8.15;0.90;;;6.70;99.90;;;;;;5137256;27;20390;-87
2023/12/26 15:48:44;;;;;;;7.10;0.80;;;6.40;99.90;;;;;;5135439;27;20444;-86
2023/12/26 15:51:10;;;;;;;5.88;0.90;;;6.30;99.90;;;;;;5124559;27;20953;-86